Ninoy Aquino International Airport
RPLL : now visible

Airfield :











YOU CAN JOIN US ON...

 
LOGIN :

Register | Disclaimer

   EN    FR    IT 

 









Legend :    VFR   Marginal VFR   IFR   Intensive IFR   Very Intensive IFR
Visi :
Ceiling :
>= 8 km
>= 3000ft
5 to 8 km
1000 to 3000 ft
1500m to 5 km
500 to 1000 ft
800 to 1500m
200 to 500 ft
< 800m
< 200 ft
Symbols :   Thunderstorms  Fog  Heavy snow  Heavy precipitations  Wind > 20 kt






- Airport Elevation : 75 ft
- IATA code : MNL


RPLL - Ninoy Aquino International

CURRENT METAR :
  • 071400Z VRB02KT 9999 FEW025 29/24 Q1011 NOSIG RMK A2985

EXPIRED METARs :
  • 071300Z 22004KT 180V250 9999 FEW025 SCT100 29/24 Q1010 NOSIG RMK A2983
  • 071200Z 24005KT 9999 FEW025 SCT300 29/24 Q1010 NOSIG RMK A2983

TAF TAF RPLL
Valid from the 07 at 12:00 until the 08 at 18:00 UTC


071100Z 0712/0818 12011KT 9999 FEW025 TX34/0806Z TN25/0721Z
TEMPO 0712/0715 27004KT FEW025 SCT090
TEMPO 0715/0721 06004KT FEW025 SCT100



MET'MAP, your aeronautical weather chart ! - Copyright ORBIFLY December 2007 - Disclaimer

ORBIFLY MET'MAP TEAM :

Programming & Development : Alexandra Zaïnal
Concept & original design : Baudouin d'Aumeries
Assistance for programming : Marc-Olivier Méhu
Technical & hardware support : Manuel Goepfert

Contact : metmap@orbifly.com




SOURCES & CREDITS :

   NOAA       Earth
Advisory